Time;durP1;ratioP1;P1;durP2;ratioP2;P2;SDS_P1;SDS_P2;PMS_P1;PMS_P2;Temp;Humidity;BMP_temperature;BMP_pressure;BME280_temperature;BME280_humidity;BME280_pressure;Samples;Min_cycle;Max_cycle;Signal;HPM_P1;HPM_P2
2022/07/05 00:00:06;;;;;;;5.05;3.70;;;;;;;18.40;49.19;101432.28;690427;28;1202;-79
2022/07/05 00:00:49;;;;;;;5.90;3.97;;;;;;;18.42;48.88;101429.63;688595;28;1516;-78
2022/07/05 00:01:11;;;;;;;4.20;3.80;;;;;;;18.40;48.86;101429.66;690308;28;1153;-78
2022/07/05 00:01:33;;;;;;;3.80;3.50;;;;;;;18.45;48.92;101435.81;692964;28;1194;-79
2022/07/05 00:01:53;;;;;;;3.80;3.50;;;;;;;18.45;48.61;101433.19;692337;28;1188;-78
2022/07/05 00:02:15;;;;;;;4.10;3.70;;;;;;;18.42;48.75;101422.59;693150;28;1138;-79
2022/07/05 00:02:36;;;;;;;4.10;3.70;;;;;;;18.48;48.72;101434.97;693023;28;1083;-79
2022/07/05 00:02:57;;;;;;;4.10;3.50;;;;;;;18.43;48.72;101427.03;691236;28;1474;-79
2022/07/05 00:03:33;;;;;;;3.80;3.40;;;;;;;18.48;48.81;101437.63;690341;28;1127;-78
2022/07/05 00:03:54;;;;;;;3.65;3.35;;;;;;;18.47;48.93;101433.22;685026;28;1351;-79
2022/07/05 00:04:16;;;;;;;3.60;3.30;;;;;;;18.49;48.87;101436.72;690340;28;1128;-78
2022/07/05 00:04:41;;;;;;;3.83;3.42;;;;;;;18.46;48.70;101431.44;690287;28;1453;-79
2022/07/05 00:05:03;;;;;;;4.93;3.67;;;;;;;18.54;48.76;101448.22;684873;28;1973;-79
2022/07/05 00:05:24;;;;;;;4.53;3.60;;;;;;;18.52;48.65;101441.16;685572;28;1392;-79
2022/07/05 00:05:45;;;;;;;4.65;3.78;;;;;;;18.53;48.69;101442.91;690567;28;854;-78
2022/07/05 00:06:07;;;;;;;4.25;3.85;;;;;;;18.52;48.83;101442.06;690506;28;1047;-79
2022/07/05 00:06:28;;;;;;;4.78;4.20;;;;;;;18.48;48.98;101432.31;692071;28;1739;-79
2022/07/05 00:07:31;;;;;;;8.32;3.60;;;;;;;18.46;48.69;101426.16;690323;28;1185;-78
2022/07/05 00:07:54;;;;;;;7.95;3.30;;;;;;;18.47;48.55;101438.50;687778;28;922;-79
2022/07/05 00:08:16;;;;;;;5.63;3.42;;;;;;;18.51;48.51;101442.94;687748;28;1114;-78
2022/07/05 00:08:38;;;;;;;4.70;3.45;;;;;;;18.51;48.60;101442.94;688505;28;1302;-78
2022/07/05 00:08:59;;;;;;;7.13;3.70;;;;;;;18.44;48.70;101433.19;690462;28;1385;-78
2022/07/05 00:09:19;;;;;;;7.03;3.67;;;;;;;18.43;48.61;101431.44;687505;28;1174;-78
2022/07/05 00:09:40;;;;;;;6.72;3.70;;;;;;;18.49;48.50;101442.00;689970;28;1435;-79
2022/07/05 00:10:02;;;;;;;4.60;3.30;;;;;;;18.43;48.65;101431.44;687648;28;799;-78
2022/07/05 00:10:23;;;;;;;4.55;3.50;;;;;;;18.41;48.69;101428.78;687701;28;1215;-78
2022/07/05 00:10:44;;;;;;;4.40;3.50;;;;;;;18.43;48.77;101436.72;690472;28;942;-79
2022/07/05 00:11:06;;;;;;;5.80;3.70;;;;;;;18.41;48.65;101435.81;690516;28;998;-79
2022/07/05 00:11:27;;;;;;;5.45;3.60;;;;;;;18.40;48.80;101437.56;687544;28;1212;-78
2022/07/05 00:11:48;;;;;;;5.05;3.70;;;;;;;18.37;48.81;101432.25;684983;28;1150;-79
2022/07/05 00:12:09;;;;;;;3.80;3.40;;;;;;;18.40;48.84;101436.69;685279;28;1239;-79
2022/07/05 00:12:32;;;;;;;4.65;3.70;;;;;;;18.34;48.76;101427.84;687734;28;1129;-78
2022/07/05 00:13:00;;;;;;;4.80;3.47;;;;;;;18.36;48.75;101436.69;685050;28;1306;-78
2022/07/05 00:13:21;;;;;;;4.57;3.30;;;;;;;18.33;48.96;101436.63;687510;28;1506;-79
2022/07/05 00:13:41;;;;;;;3.60;3.30;;;;;;;18.34;48.80;101437.53;690477;28;834;-78
2022/07/05 00:14:03;;;;;;;3.88;3.55;;;;;;;18.36;48.81;101443.72;690079;28;1209;-79
2022/07/05 00:14:24;;;;;;;4.20;3.80;;;;;;;18.29;48.91;101433.97;686003;28;1280;-79
2022/07/05 00:15:09;;;;;;;4.88;3.80;;;;;;;18.32;48.91;101437.50;685556;28;859;-78
2022/07/05 00:15:32;;;;;;;3.92;3.33;;;;;;;18.31;49.17;101434.88;689323;28;1130;-78
2022/07/05 00:15:53;;;;;;;4.60;3.70;;;;;;;18.27;49.06;101443.66;692559;28;1488;-78
2022/07/05 00:16:17;;;;;;;5.60;3.90;;;;;;;18.26;48.91;101434.84;688155;28;1218;-78
2022/07/05 00:16:38;;;;;;;4.90;3.70;;;;;;;18.26;49.19;101433.97;687689;28;1646;-79
2022/07/05 00:17:30;;;;;;;4.22;3.58;;;;;;;18.27;49.23;101447.19;685099;28;1488;-78
2022/07/05 00:17:51;;;;;;;4.65;3.40;;;;;;;18.19;49.20;101433.91;684639;28;1405;-78
2022/07/05 00:18:13;;;;;;;5.95;3.55;;;;;;;18.21;49.28;101439.22;685441;28;1132;-78
2022/07/05 00:18:41;;;;;;;6.95;3.63;;;;;;;18.23;49.36;101445.38;692629;28;1292;-78
2022/07/05 00:19:02;;;;;;;4.88;3.60;;;;;;;18.19;49.23;101441.84;685517;28;1183;-79
2022/07/05 00:19:24;;;;;;;4.87;3.93;;;;;;;18.18;49.19;101442.72;683580;28;1298;-78
2022/07/05 00:19:46;;;;;;;6.25;4.20;;;;;;;18.19;49.19;101439.19;690392;28;1139;-78
2022/07/05 00:20:07;;;;;;;7.47;4.35;;;;;;;18.14;49.31;101440.00;693658;28;968;-79
2022/07/05 00:20:28;;;;;;;5.80;3.70;;;;;;;18.08;49.31;101430.28;693548;28;1224;-79
2022/07/05 00:20:48;;;;;;;5.30;3.70;;;;;;;18.09;49.26;101442.63;685486;28;1561;-79
2022/07/05 00:21:09;;;;;;;5.15;3.70;;;;;;;18.09;49.37;101440.84;690886;28;1275;-79
2022/07/05 00:21:30;;;;;;;5.53;3.70;;;;;;;18.09;49.29;101439.97;687503;28;1206;-78
2022/07/05 00:21:50;;;;;;;5.20;3.77;;;;;;;18.06;49.29;101440.84;686292;28;1347;-78
2022/07/05 00:22:13;;;;;;;4.82;3.70;;;;;;;18.02;49.25;101428.47;685443;28;1081;-79
2022/07/05 00:22:34;;;;;;;4.72;3.60;;;;;;;18.03;49.36;101443.47;688291;28;1137;-79
2022/07/05 00:22:55;;;;;;;4.10;3.40;;;;;;;18.05;49.55;101446.09;688264;28;767;-79
2022/07/05 00:23:17;;;;;;;3.80;3.40;;;;;;;18.03;49.35;101448.75;688140;28;1309;-79
2022/07/05 00:23:40;;;;;;;4.00;3.60;;;;;;;17.97;49.46;101434.59;684866;28;1177;-79
2022/07/05 00:24:00;;;;;;;4.10;3.70;;;;;;;17.99;49.70;101435.47;687479;28;1201;-79
2022/07/05 00:24:21;;;;;;;4.70;3.72;;;;;;;18.02;49.45;101452.22;688016;28;1014;-78
2022/07/05 00:24:42;;;;;;;5.88;3.70;;;;;;;17.98;49.75;101434.63;688398;28;756;-78
2022/07/05 00:25:04;;;;;;;5.80;3.72;;;;;;;18.02;49.72;101441.66;691024;28;1991;-79
2022/07/05 00:25:27;;;;;;;4.60;3.70;;;;;;;17.98;49.75;101434.63;690922;28;1226;-79
2022/07/05 00:26:10;;;;;;;4.20;3.70;;;;;;;18.05;49.63;101441.72;688255;28;815;-79
2022/07/05 00:26:31;;;;;;;5.20;3.78;;;;;;;18.04;49.85;101428.50;687657;28;1194;-78
2022/07/05 00:26:51;;;;;;;4.90;3.70;;;;;;;18.07;49.72;101439.09;691186;28;1218;-79
2022/07/05 00:27:12;;;;;;;4.32;3.60;;;;;;;18.06;49.55;101432.91;688087;28;1209;-78
2022/07/05 00:27:33;;;;;;;5.32;3.60;;;;;;;18.06;49.63;101432.91;688195;28;1180;-79
2022/07/05 00:27:54;;;;;;;5.18;3.70;;;;;;;18.07;49.61;101433.81;685514;28;1431;-79
2022/07/05 00:28:17;;;;;;;4.82;3.92;;;;;;;18.08;49.70;101441.72;684864;28;1401;-79
2022/07/05 00:28:37;;;;;;;5.40;4.13;;;;;;;18.07;49.53;101426.75;683056;29;800;-79
2022/07/05 00:28:58;;;;;;;5.60;4.20;;;;;;;18.11;49.51;101440.88;685554;28;1223;-79
2022/07/05 00:29:19;;;;;;;5.93;3.95;;;;;;;18.08;49.48;101436.44;684613;28;1296;-79
2022/07/05 00:29:40;;;;;;;4.78;3.70;;;;;;;18.05;49.37;101431.16;685407;28;1086;-78
2022/07/05 00:30:02;;;;;;;4.30;3.57;;;;;;;18.06;49.48;101427.63;688026;28;1150;-79
2022/07/05 00:30:24;;;;;;;4.50;3.40;;;;;;;18.09;49.20;101426.78;693195;28;1362;-78
2022/07/05 00:30:45;;;;;;;4.75;3.55;;;;;;;18.08;49.43;101436.44;693865;28;1667;-79
2022/07/05 00:31:06;;;;;;;4.72;3.72;;;;;;;18.12;49.49;101431.19;691047;28;1411;-78
2022/07/05 00:31:26;;;;;;;4.28;3.80;;;;;;;18.12;49.43;101432.06;688057;28;1281;-78
2022/07/05 00:31:47;;;;;;;9.00;4.00;;;;;;;18.17;49.65;101445.34;685665;28;1262;-78
2022/07/05 00:32:08;;;;;;;8.57;3.80;;;;;;;18.13;49.52;101433.84;682913;28;1150;-79
2022/07/05 00:32:34;;;;;;;8.90;4.00;;;;;;;18.17;49.46;101438.31;685556;28;1212;-79
2022/07/05 00:32:55;;;;;;;4.40;3.63;;;;;;;18.13;49.55;101428.56;689444;28;1504;-78
2022/07/05 00:33:17;;;;;;;5.45;3.58;;;;;;;18.13;49.56;101433.84;688126;28;1230;-79
2022/07/05 00:33:42;;;;;;;5.38;3.20;;;;;;;18.14;49.70;101435.63;688177;28;976;-78
2022/07/05 00:34:04;;;;;;;4.65;3.35;;;;;;;18.13;49.57;101432.97;693603;28;1227;-78
2022/07/05 00:34:26;;;;;;;4.30;3.47;;;;;;;18.13;49.51;101433.84;688126;28;1309;-78
2022/07/05 00:34:49;;;;;;;4.00;3.60;;;;;;;18.13;49.66;101428.56;690977;28;1274;-79
2022/07/05 00:35:38;;;;;;;4.82;3.47;;;;;;;18.19;49.66;101438.34;687481;28;1268;-79
2022/07/05 00:36:29;;;;;;;4.70;2.97;;;;;;;18.19;49.49;101443.63;690785;28;1443;-78
2022/07/05 00:37:20;;;;;;;4.30;3.58;;;;;;;18.15;49.40;101437.44;696450;28;682;-78
2022/07/05 00:37:59;;;;;;;5.20;3.70;;;;;;;18.17;49.48;101440.06;688223;28;1365;-78
2022/07/05 00:38:22;;;;;;;5.00;3.60;;;;;;;18.11;49.73;101429.41;682889;28;1167;-78
2022/07/05 00:38:45;;;;;;;4.32;3.60;;;;;;;18.11;49.56;101429.41;693518;28;1333;-79
2022/07/05 00:39:07;;;;;;;3.90;3.50;;;;;;;18.16;49.60;101433.91;690511;28;1379;-79
2022/07/05 00:39:28;;;;;;;3.88;3.47;;;;;;;18.12;49.57;101432.06;688993;28;1266;-80
2022/07/05 00:39:49;;;;;;;3.85;3.55;;;;;;;18.10;49.64;101428.53;690122;28;1168;-78
2022/07/05 00:40:09;;;;;;;3.77;3.47;;;;;;;18.12;49.63;101432.06;693137;28;1419;-79
2022/07/05 00:40:30;;;;;;;3.72;3.42;;;;;;;18.09;49.62;101432.91;693788;28;1274;-78
2022/07/05 00:40:53;;;;;;;3.92;3.53;;;;;;;18.15;49.64;101442.72;690846;28;1014;-79
2022/07/05 00:41:14;;;;;;;4.25;3.70;;;;;;;18.12;49.70;101436.50;696410;28;1190;-78
2022/07/05 00:41:36;;;;;;;4.07;3.50;;;;;;;18.09;49.69;101434.69;693515;28;1113;-78
2022/07/05 00:42:00;;;;;;;3.50;3.20;;;;;;;18.07;49.60;101434.69;688177;28;1428;-78
2022/07/05 00:42:22;;;;;;;3.75;3.45;;;;;;;18.09;49.47;101438.22;685373;28;941;-80
2022/07/05 00:42:43;;;;;;;4.28;3.70;;;;;;;18.05;49.71;101432.91;688494;28;1167;-79
2022/07/05 00:43:04;;;;;;;4.60;3.90;;;;;;;18.03;49.64;101429.38;688157;28;984;-78
2022/07/05 00:43:24;;;;;;;4.20;3.70;;;;;;;18.06;49.75;101437.28;690846;28;1154;-79
2022/07/05 00:44:00;;;;;;;3.90;3.60;;;;;;;18.09;49.76;101443.50;688148;28;1227;-79
2022/07/05 00:44:30;;;;;;;4.35;3.95;;;;;;;18.08;49.65;101436.44;690652;28;1224;-79
2022/07/05 00:44:52;;;;;;;4.63;4.10;;;;;;;18.03;49.67;101427.63;693537;28;878;-78
2022/07/05 00:45:13;;;;;;;4.68;4.07;;;;;;;18.05;49.69;101433.78;688054;28;1992;-79
2022/07/05 00:45:34;;;;;;;4.10;3.70;;;;;;;18.05;49.71;101427.63;691012;28;1107;-79
2022/07/05 00:45:54;;;;;;;4.15;3.67;;;;;;;18.04;49.83;101428.50;690846;28;1038;-79
2022/07/05 00:46:16;;;;;;;4.20;3.58;;;;;;;18.06;49.73;101437.28;693547;28;1117;-78
2022/07/05 00:46:38;;;;;;;4.50;3.63;;;;;;;18.08;49.85;101440.88;685273;28;1434;-79
2022/07/05 00:47:00;;;;;;;5.47;3.60;;;;;;;18.06;49.83;101438.19;687855;28;886;-79
2022/07/05 00:47:21;;;;;;;5.72;3.90;;;;;;;18.08;50.00;101439.09;687471;28;1272;-79
2022/07/05 00:47:57;;;;;;;5.13;3.83;;;;;;;18.05;49.87;101441.72;688310;28;752;-78
2022/07/05 00:48:19;;;;;;;4.68;4.10;;;;;;;18.02;49.88;101440.81;685064;28;1391;-78
2022/07/05 00:48:40;;;;;;;4.50;4.10;;;;;;;17.98;50.05;101433.72;688297;28;752;-78
2022/07/05 00:49:02;;;;;;;4.47;4.07;;;;;;;18.00;50.12;101437.28;690972;28;814;-79
2022/07/05 00:49:22;;;;;;;4.30;3.90;;;;;;;17.96;50.02;101436.38;693069;28;1347;-78
2022/07/05 00:49:44;;;;;;;4.10;3.80;;;;;;;17.94;50.17;101435.44;690475;28;1467;-78
2022/07/05 00:50:06;;;;;;;4.05;3.67;;;;;;;17.92;50.24;101443.38;685403;28;1340;-79
2022/07/05 00:50:27;;;;;;;4.50;3.75;;;;;;;17.98;50.20;101449.56;688769;28;1572;-78
2022/07/05 00:50:50;;;;;;;5.03;3.85;;;;;;;17.91;49.88;101436.34;693479;28;1058;-78
2022/07/05 00:51:11;;;;;;;4.30;3.75;;;;;;;17.91;50.08;101443.34;688160;28;1004;-79
2022/07/05 00:51:36;;;;;;;4.20;3.70;;;;;;;17.90;50.08;101441.59;690901;28;1105;-79
2022/07/05 00:51:58;;;;;;;4.50;4.10;;;;;;;17.85;50.08;101438.03;690778;28;1176;-79
2022/07/05 00:52:19;;;;;;;4.80;4.00;;;;;;;17.84;50.06;101447.72;690726;28;1165;-79
2022/07/05 00:52:40;;;;;;;4.50;3.85;;;;;;;17.78;50.18;101437.09;688209;28;1296;-78
2022/07/05 00:53:02;;;;;;;4.45;3.60;;;;;;;17.76;50.27;101436.22;688135;28;1296;-79
2022/07/05 00:53:22;;;;;;;5.18;3.80;;;;;;;17.76;50.26;101446.75;690843;28;1235;-78
2022/07/05 00:53:43;;;;;;;5.25;3.72;;;;;;;17.73;50.43;101436.16;693701;28;708;-79
2022/07/05 00:54:06;;;;;;;5.97;3.60;;;;;;;17.75;50.37;101451.16;693643;28;1063;-79
2022/07/05 00:54:28;;;;;;;5.45;3.50;;;;;;;17.71;50.55;101441.44;695203;28;1149;-78
2022/07/05 00:54:49;;;;;;;5.60;3.67;;;;;;;17.74;50.38;101446.75;693616;28;1230;-79
2022/07/05 00:55:10;;;;;;;5.00;3.78;;;;;;;17.74;50.67;101453.75;690943;28;996;-78
2022/07/05 00:55:31;;;;;;;4.78;4.03;;;;;;;17.72;50.70;101453.78;685367;28;1109;-78
2022/07/05 00:55:58;;;;;;;5.00;4.15;;;;;;;17.66;50.67;101448.44;688171;28;1215;-79
2022/07/05 00:56:19;;;;;;;4.40;4.00;;;;;;;17.66;50.80;101451.06;687410;28;1581;-78
2022/07/05 00:56:41;;;;;;;4.20;3.80;;;;;;;17.65;50.75;101447.53;687172;28;1282;-78
2022/07/05 00:57:02;;;;;;;4.28;3.67;;;;;;;17.66;50.82;101448.44;685092;28;1226;-79
2022/07/05 00:57:23;;;;;;;4.63;3.60;;;;;;;17.73;50.62;101457.28;685396;28;1197;-78
2022/07/05 00:57:49;;;;;;;4.50;3.53;;;;;;;17.69;50.50;101448.44;687706;28;1442;-79
2022/07/05 00:58:11;;;;;;;3.92;3.47;;;;;;;17.73;50.67;101457.28;688195;28;883;-79
2022/07/05 00:58:33;;;;;;;4.90;3.65;;;;;;;17.77;50.51;101459.94;688124;28;1107;-78
2022/07/05 00:58:54;;;;;;;5.93;3.70;;;;;;;17.77;50.71;101454.69;688046;28;1240;-79
2022/07/05 00:59:15;;;;;;;5.95;3.75;;;;;;;17.77;50.52;101459.94;690644;28;1069;-79
2022/07/05 00:59:35;;;;;;;4.80;3.70;;;;;;;17.75;50.50;101455.53;689907;28;1317;-78
2022/07/05 00:59:56;;;;;;;5.13;3.73;;;;;;;17.75;50.63;101448.50;687955;28;1256;-79
2022/07/05 01:00:18;;;;;;;5.03;3.93;;;;;;;17.81;50.47;101456.50;687681;28;1305;-78
2022/07/05 01:00:40;;;;;;;4.90;3.65;;;;;;;17.79;50.46;101454.69;690862;28;1470;-78
2022/07/05 01:01:03;;;;;;;4.40;3.80;;;;;;;17.85;50.42;101460.03;688145;28;1325;-79
2022/07/05 01:01:26;;;;;;;4.65;3.60;;;;;;;17.85;50.56;101456.50;685251;28;1653;-78
2022/07/05 01:01:47;;;;;;;4.68;3.45;;;;;;;17.85;50.52;101456.50;688075;28;1238;-79
2022/07/05 01:02:08;;;;;;;4.10;3.30;;;;;;;17.86;50.54;101445.06;688201;28;1156;-78
2022/07/05 01:02:29;;;;;;;3.60;3.30;;;;;;;17.89;50.54;101455.66;687177;28;1250;-78
2022/07/05 01:02:50;;;;;;;3.67;3.38;;;;;;;17.91;50.41;101454.81;685513;28;1371;-78
2022/07/05 01:03:13;;;;;;;3.60;3.30;;;;;;;17.87;50.42;101449.47;690706;28;1518;-79
2022/07/05 01:03:34;;;;;;;4.20;3.55;;;;;;;17.93;50.28;101454.81;691012;28;1613;-78
2022/07/05 01:03:55;;;;;;;4.57;3.40;;;;;;;17.92;50.21;101460.97;690730;28;882;-79
2022/07/05 01:04:15;;;;;;;4.32;3.63;;;;;;;17.85;50.06;101440.66;690750;28;1061;-79
2022/07/05 01:04:36;;;;;;;3.72;3.35;;;;;;;17.88;50.23;101446.84;690934;28;822;-79
2022/07/05 01:04:58;;;;;;;3.78;3.38;;;;;;;17.91;50.22;101453.91;688202;28;1409;-79
2022/07/05 01:05:19;;;;;;;3.67;3.30;;;;;;;17.87;50.27;101444.19;690618;28;1915;-79
2022/07/05 01:05:40;;;;;;;4.80;3.30;;;;;;;17.86;50.20;101445.06;693531;28;1222;-79
2022/07/05 01:06:07;;;;;;;4.85;3.33;;;;;;;17.88;50.15;101453.91;690435;28;1573;-79
2022/07/05 01:06:27;;;;;;;4.45;3.40;;;;;;;17.87;50.34;101452.09;690708;28;963;-78
2022/07/05 01:06:50;;;;;;;3.70;3.40;;;;;;;17.89;50.35;101456.53;687771;28;1307;-79
2022/07/05 01:07:11;;;;;;;3.88;3.58;;;;;;;17.86;50.30;101450.34;688085;28;1072;-79
2022/07/05 01:07:31;;;;;;;4.50;3.63;;;;;;;17.85;50.42;101456.50;688190;28;1195;-78
2022/07/05 01:08:30;;;;;;;4.53;3.58;;;;;;;17.79;50.39;101452.97;685594;28;1124;-80
2022/07/05 01:08:52;;;;;;;3.70;3.30;;;;;;;17.71;50.29;101452.00;687682;28;1604;-78
2022/07/05 01:09:15;;;;;;;3.80;3.30;;;;;;;17.64;50.55;101445.75;687737;28;1610;-78
2022/07/05 01:09:36;;;;;;;3.90;3.50;;;;;;;17.63;50.51;101449.28;685804;28;1099;-78
2022/07/05 01:09:57;;;;;;;4.15;3.42;;;;;;;17.62;50.61;101452.78;688275;28;1279;-79
2022/07/05 01:10:18;;;;;;;4.88;3.80;;;;;;;17.62;50.71;101451.88;690828;28;975;-78
2022/07/05 01:10:41;;;;;;;5.45;3.70;;;;;;;17.65;50.69;101458.09;688784;28;1306;-78
2022/07/05 01:11:02;;;;;;;5.47;3.70;;;;;;;17.60;50.76;101458.91;682665;28;1288;-78
2022/07/05 01:11:23;;;;;;;4.65;3.40;;;;;;;17.57;50.75;101453.63;685386;28;977;-78
2022/07/05 01:11:45;;;;;;;4.07;3.17;;;;;;;17.63;50.87;101458.94;690761;28;1292;-78
2022/07/05 01:12:08;;;;;;;4.32;3.00;;;;;;;17.62;51.01;101457.16;687994;28;959;-78
2022/07/05 01:12:29;;;;;;;5.05;3.03;;;;;;;17.57;50.93;101448.34;688035;28;1091;-79
2022/07/05 01:12:50;;;;;;;6.00;3.10;;;;;;;17.58;51.06;101450.97;690854;28;1195;-78
2022/07/05 01:13:10;;;;;;;5.80;3.20;;;;;;;17.64;50.84;101456.31;687410;28;1060;-79
2022/07/05 01:13:31;;;;;;;4.90;3.30;;;;;;;17.60;51.19;101454.53;688052;28;989;-78
2022/07/05 01:13:53;;;;;;;4.05;3.30;;;;;;;17.62;50.77;101455.44;690883;28;1211;-79
2022/07/05 01:14:17;;;;;;;3.58;3.28;;;;;;;17.63;50.90;101451.03;690654;28;1024;-78
2022/07/05 01:14:41;;;;;;;3.60;3.30;;;;;;;17.62;51.10;101446.63;687989;28;1254;-78
2022/07/05 01:15:02;;;;;;;3.60;3.30;;;;;;;17.65;50.95;101458.09;685450;28;1450;-78
2022/07/05 01:15:24;;;;;;;3.67;3.30;;;;;;;17.66;50.98;101462.50;684945;28;1304;-78
2022/07/05 01:15:46;;;;;;;3.60;3.30;;;;;;;17.61;51.01;101450.13;685335;28;1196;-78
2022/07/05 01:16:08;;;;;;;5.25;3.60;;;;;;;17.65;51.15;101459.88;690804;28;1106;-78
2022/07/05 01:16:29;;;;;;;5.68;3.70;;;;;;;17.64;50.81;101455.47;693522;28;1371;-79
2022/07/05 01:16:52;;;;;;;5.82;3.80;;;;;;;17.66;50.89;101459.84;688426;28;1397;-78
2022/07/05 01:17:13;;;;;;;3.90;3.50;;;;;;;17.64;50.92;101455.47;685275;28;1573;-78
2022/07/05 01:17:36;;;;;;;4.05;3.50;;;;;;;17.65;51.02;101457.22;688122;28;1148;-79
2022/07/05 01:17:58;;;;;;;4.70;3.67;;;;;;;17.61;51.02;101450.13;688113;28;815;-78
2022/07/05 01:18:21;;;;;;;4.85;3.50;;;;;;;17.62;50.93;101447.50;690689;28;1368;-78
2022/07/05 01:18:43;;;;;;;5.30;3.28;;;;;;;17.61;50.98;101450.13;690886;28;890;-78
2022/07/05 01:19:08;;;;;;;6.03;3.40;;;;;;;17.68;50.94;101459.88;682695;29;1181;-79
2022/07/05 01:19:29;;;;;;;6.30;3.58;;;;;;;17.64;50.98;101445.75;685133;28;1088;-78
2022/07/05 01:19:51;;;;;;;5.75;3.70;;;;;;;17.68;50.81;101457.25;685357;28;1375;-79
2022/07/05 01:20:14;;;;;;;4.15;3.33;;;;;;;17.68;50.93;101459.88;688011;28;1109;-79
2022/07/05 01:20:35;;;;;;;4.13;3.20;;;;;;;17.62;50.90;101447.50;682729;28;1090;-78
2022/07/05 01:20:58;;;;;;;3.85;3.10;;;;;;;17.61;50.92;101442.22;688053;28;1110;-78
2022/07/05 01:21:22;;;;;;;3.75;3.35;;;;;;;17.61;50.67;101439.56;687971;28;1310;-79
2022/07/05 01:21:46;;;;;;;5.10;3.60;;;;;;;17.63;50.72;101453.66;683797;28;1718;-80
2022/07/05 01:22:17;;;;;;;5.88;3.80;;;;;;;17.63;51.01;101453.66;685502;28;997;-78
2022/07/05 01:22:55;;;;;;;5.20;3.70;;;;;;;17.54;50.98;101455.34;685417;28;1119;-79
2022/07/05 01:23:22;;;;;;;4.00;3.22;;;;;;;17.58;50.67;101456.25;685200;28;1394;-78
2022/07/05 01:23:43;;;;;;;4.43;3.40;;;;;;;17.53;50.91;101450.94;682436;29;1237;-78
2022/07/05 01:24:04;;;;;;;5.10;3.40;;;;;;;17.55;51.12;101450.97;685439;28;1095;-78
2022/07/05 01:24:26;;;;;;;5.47;3.70;;;;;;;17.49;51.12;101448.25;685412;28;1119;-78
2022/07/05 01:24:48;;;;;;;3.95;3.40;;;;;;;17.56;50.96;101463.28;687877;28;1628;-79
2022/07/05 01:25:09;;;;;;;4.00;3.60;;;;;;;17.50;51.11;101448.28;687956;28;1922;-78
2022/07/05 01:25:31;;;;;;;4.13;3.72;;;;;;;17.50;50.92;101448.28;687930;28;1051;-78
2022/07/05 01:25:54;;;;;;;4.03;3.63;;;;;;;17.50;50.96;101453.56;689538;28;1185;-78
2022/07/05 01:26:15;;;;;;;3.85;3.53;;;;;;;17.51;50.82;101455.31;690608;28;1058;-78
2022/07/05 01:26:38;;;;;;;3.90;3.50;;;;;;;17.53;50.99;101447.44;688359;28;1502;-78
2022/07/05 01:26:59;;;;;;;3.90;3.50;;;;;;;17.54;50.71;101455.34;687989;28;1195;-78
2022/07/05 01:27:20;;;;;;;3.60;3.30;;;;;;;17.54;50.88;101451.84;687966;28;1244;-77
2022/07/05 01:27:42;;;;;;;3.55;3.25;;;;;;;17.60;51.08;101464.19;685302;28;1321;-78
2022/07/05 01:28:03;;;;;;;4.32;3.40;;;;;;;17.56;51.05;101454.50;683474;28;1689;-77
2022/07/05 01:28:25;;;;;;;4.88;3.50;;;;;;;17.61;50.84;101461.59;688034;28;2036;-78
2022/07/05 01:28:46;;;;;;;5.47;3.70;;;;;;;17.62;51.01;101465.09;693483;28;1229;-78
2022/07/05 01:29:08;;;;;;;4.15;3.70;;;;;;;17.63;50.97;101464.22;690527;28;1355;-78
2022/07/05 01:29:29;;;;;;;4.03;3.63;;;;;;;17.63;50.94;101469.50;690575;28;1278;-78
2022/07/05 01:29:50;;;;;;;3.92;3.50;;;;;;;17.62;50.89;101458.06;693044;28;1349;-78
2022/07/05 01:30:11;;;;;;;4.32;3.50;;;;;;;17.66;50.77;101456.34;690785;28;1237;-78
2022/07/05 01:30:35;;;;;;;4.67;3.50;;;;;;;17.68;50.86;101465.16;694352;28;1348;-78
2022/07/05 01:30:56;;;;;;;5.55;3.50;;;;;;;17.67;50.84;101459.00;690777;28;1572;-77
2022/07/05 01:31:16;;;;;;;5.65;3.45;;;;;;;17.72;50.70;101468.72;690725;28;1212;-78
2022/07/05 01:31:38;;;;;;;4.55;3.58;;;;;;;17.70;50.62;101460.78;690885;28;795;-78
2022/07/05 01:32:00;;;;;;;5.03;3.60;;;;;;;17.73;50.53;101465.19;690761;28;1449;-78
2022/07/05 01:32:21;;;;;;;4.80;3.63;;;;;;;17.69;50.55;101453.72;687911;28;1129;-78
2022/07/05 01:32:44;;;;;;;4.40;3.80;;;;;;;17.69;50.58;101453.72;690701;28;1224;-77
2022/07/05 01:33:06;;;;;;;4.00;3.70;;;;;;;17.69;50.77;101445.81;690546;28;1194;-78
2022/07/05 01:33:30;;;;;;;4.32;3.45;;;;;;;17.74;50.30;101461.69;688128;28;1136;-78
2022/07/05 01:33:51;;;;;;;4.32;3.40;;;;;;;17.73;50.65;101454.63;687436;28;1155;-78
2022/07/05 01:34:13;;;;;;;3.92;3.50;;;;;;;17.76;50.58;101458.19;690186;28;1108;-78
2022/07/05 01:34:38;;;;;;;3.70;3.40;;;;;;;17.77;50.42;101461.72;690795;28;1067;-77
2022/07/05 01:35:00;;;;;;;5.22;3.50;;;;;;;17.71;50.52;101452.00;690748;28;1231;-78
2022/07/05 01:35:23;;;;;;;6.32;3.50;;;;;;;17.72;50.59;101453.78;687560;28;1264;-78
2022/07/05 01:35:43;;;;;;;5.22;3.88;;;;;;;17.75;50.35;101459.06;690356;28;1481;-78
2022/07/05 01:36:04;;;;;;;5.20;3.97;;;;;;;17.77;50.24;101452.03;690604;28;1309;-78
2022/07/05 01:36:26;;;;;;;4.70;4.03;;;;;;;17.84;50.42;101457.38;690740;28;1009;-77
2022/07/05 01:36:48;;;;;;;4.25;3.85;;;;;;;17.79;50.23;101455.59;690634;28;1127;-78
2022/07/05 01:37:10;;;;;;;4.25;3.80;;;;;;;17.77;50.30;101444.13;690714;28;1174;-78
2022/07/05 01:37:31;;;;;;;4.10;3.70;;;;;;;17.85;50.22;101452.13;690638;28;1450;-77
2022/07/05 01:37:52;;;;;;;4.00;3.60;;;;;;;17.86;50.22;101455.63;690668;28;1343;-78
2022/07/05 01:38:13;;;;;;;5.53;3.72;;;;;;;17.88;50.22;101454.78;690868;28;1174;-78
2022/07/05 01:38:34;;;;;;;5.90;3.72;;;;;;;17.89;50.08;101455.66;693417;28;1274;-78
2022/07/05 01:38:54;;;;;;;5.90;3.80;;;;;;;17.91;50.05;101453.91;693500;28;1298;-77
2022/07/05 01:39:15;;;;;;;4.00;3.60;;;;;;;17.89;49.97;101442.47;690778;28;1160;-79
2022/07/05 01:39:36;;;;;;;3.90;3.60;;;;;;;17.91;50.01;101451.28;687177;28;1034;-78
2022/07/05 01:39:59;;;;;;;3.70;3.40;;;;;;;17.97;49.98;101458.38;687997;28;792;-78
2022/07/05 01:40:20;;;;;;;4.40;3.65;;;;;;;17.95;49.91;101445.16;690551;28;1465;-78
2022/07/05 01:40:41;;;;;;;4.63;3.50;;;;;;;18.02;49.70;101459.28;693771;28;1432;-78
2022/07/05 01:41:02;;;;;;;4.47;3.53;;;;;;;18.02;49.93;101462.81;690589;28;1106;-78
2022/07/05 01:41:23;;;;;;;3.65;3.35;;;;;;;18.02;49.99;101446.94;687522;28;1312;-77
2022/07/05 01:41:43;;;;;;;3.55;3.25;;;;;;;18.01;49.63;101450.47;688058;28;1266;-77
2022/07/05 01:42:06;;;;;;;3.67;3.38;;;;;;;18.03;49.72;101440.81;687589;28;1181;-77
2022/07/05 01:42:30;;;;;;;3.95;3.55;;;;;;;18.02;49.82;101446.09;687993;28;1340;-78
2022/07/05 01:42:52;;;;;;;4.40;3.70;;;;;;;18.03;49.80;101443.47;687008;28;1105;-78
2022/07/05 01:43:12;;;;;;;5.80;3.80;;;;;;;18.02;49.78;101446.09;685330;28;1467;-78
2022/07/05 01:43:55;;;;;;;5.80;3.60;;;;;;;18.06;49.72;101454.03;687852;28;1178;-78
2022/07/05 01:44:16;;;;;;;3.42;3.13;;;;;;;18.02;49.72;101457.53;684728;28;1407;-78
2022/07/05 01:44:37;;;;;;;3.53;3.22;;;;;;;17.97;49.70;101443.41;688023;28;1304;-78
2022/07/05 01:44:59;;;;;;;3.88;3.45;;;;;;;17.97;49.75;101453.97;688127;28;829;-78
2022/07/05 01:46:02;;;;;;;3.72;3.42;;;;;;;17.87;49.76;101446.81;690681;28;1322;-78
2022/07/05 01:46:25;;;;;;;3.90;3.60;;;;;;;17.82;49.87;101449.44;693158;28;1307;-78
2022/07/05 01:46:51;;;;;;;3.97;3.60;;;;;;;17.83;49.99;101458.25;690037;28;1672;-78
2022/07/05 01:47:15;;;;;;;4.10;3.70;;;;;;;17.82;50.08;101465.28;685296;28;1247;-78
2022/07/05 01:47:40;;;;;;;5.40;3.90;;;;;;;17.75;50.01;101459.06;685405;28;899;-78
2022/07/05 01:48:02;;;;;;;5.45;3.80;;;;;;;17.74;50.10;101453.75;685354;28;880;-78
2022/07/05 01:48:24;;;;;;;4.10;3.70;;;;;;;17.71;50.29;101459.03;688030;28;1041;-78
2022/07/05 01:48:45;;;;;;;5.13;3.80;;;;;;;17.67;50.42;101452.84;688092;28;935;-78
2022/07/05 01:49:10;;;;;;;5.35;3.80;;;;;;;17.66;50.38;101457.22;687917;28;1341;-78
2022/07/05 01:49:35;;;;;;;4.65;3.83;;;;;;;17.67;50.38;101460.75;682138;28;1227;-77
2022/07/05 01:49:59;;;;;;;4.35;3.78;;;;;;;17.66;50.53;101465.13;687814;28;1224;-78
2022/07/05 01:50:22;;;;;;;6.10;3.65;;;;;;;17.60;50.53;101454.53;687848;28;1235;-77
2022/07/05 01:50:47;;;;;;;5.70;3.70;;;;;;;17.65;50.71;101467.78;688092;28;835;-77
2022/07/05 01:51:18;;;;;;;6.53;3.90;;;;;;;17.58;50.60;101458.91;688033;28;1249;-78